createdAt,value
2019-04-25T00:00:46.466Z,100452.44
2019-04-25T00:03:17.512Z,100453.66
2019-04-25T00:05:46.912Z,100455.61
2019-04-25T00:08:16.374Z,100466.27
2019-04-25T00:10:45.670Z,100461.06
2019-04-25T00:13:14.819Z,100460.31
2019-04-25T00:15:44.928Z,100469.02
2019-04-25T00:18:14.846Z,100467.52
2019-04-25T00:20:45.601Z,100475.48
2019-04-25T00:23:16.355Z,100478.90
2019-04-25T00:25:53.286Z,100489.81
2019-04-25T00:28:22.388Z,100496.39
2019-04-25T00:30:52.271Z,100504.48
2019-04-25T00:33:22.253Z,100497.47
2019-04-25T00:35:52.562Z,100487.00
2019-04-25T00:38:22.245Z,100480.74
2019-04-25T00:40:52.426Z,100480.85
2019-04-25T00:43:22.209Z,100476.43
2019-04-25T00:45:52.662Z,100462.55
2019-04-25T00:48:23.805Z,100467.95
2019-04-25T00:50:54.602Z,100471.63
2019-04-25T00:53:23.776Z,100461.80
2019-04-25T00:55:53.873Z,100460.94
2019-04-25T00:58:43.064Z,100471.48
2019-04-25T01:01:29.652Z,100474.40
2019-04-25T01:03:58.756Z,100484.52
2019-04-25T01:06:27.911Z,100474.06
2019-04-25T01:08:57.007Z,100475.26
2019-04-25T01:11:26.397Z,100460.25
2019-04-25T01:13:55.521Z,100451.03
2019-04-25T01:16:24.672Z,100454.89
2019-04-25T01:18:54.793Z,100466.28
2019-04-25T01:21:25.346Z,100454.06
2019-04-25T01:23:54.525Z,100470.36
2019-04-25T01:26:24.033Z,100470.09
2019-04-25T01:28:54.062Z,100467.50
2019-04-25T01:31:25.621Z,100470.80
2019-04-25T01:33:55.607Z,100469.67
2019-04-25T01:36:44.331Z,100460.03
2019-04-25T01:39:31.422Z,100464.52
2019-04-25T01:42:03.600Z,100465.81
2019-04-25T01:44:34.680Z,100454.37
2019-04-25T01:47:04.233Z,100459.02
2019-04-25T01:49:33.997Z,100455.15
2019-04-25T01:52:03.512Z,100452.29
2019-04-25T01:54:33.967Z,100461.78
2019-04-25T01:57:04.324Z,100466.63
2019-04-25T01:59:33.895Z,100465.46
2019-04-25T02:02:04.049Z,100475.48
2019-04-25T02:04:34.485Z,100481.47
2019-04-25T02:07:04.464Z,100479.37
2019-04-25T02:09:33.836Z,100489.50
2019-04-25T02:12:10.586Z,100501.95
2019-04-25T02:14:39.702Z,100510.63
2019-04-25T02:17:08.812Z,100514.77
2019-04-25T02:19:37.938Z,100522.16
2019-04-25T02:22:07.060Z,100521.23
2019-04-25T02:24:36.170Z,100520.09
2019-04-25T02:27:05.326Z,100515.80
2019-04-25T02:29:34.443Z,100514.83
2019-04-25T02:32:08.779Z,100519.56
2019-04-25T02:34:34.956Z,100521.70
2019-04-25T02:37:09.155Z,100518.61
2019-04-25T02:39:37.289Z,100516.91
2019-04-25T02:42:08.578Z,100511.53
2019-04-25T02:44:39.515Z,100504.79
2019-04-25T02:47:10.269Z,100515.77
2019-04-25T02:49:55.838Z,100511.30
2019-04-25T02:52:28.993Z,100519.00
2019-04-25T02:54:59.053Z,100508.24
2019-04-25T02:57:28.970Z,100509.30
2019-04-25T02:59:58.585Z,100512.09
2019-04-25T03:02:27.742Z,100503.06
2019-04-25T03:04:58.282Z,100491.91
2019-04-25T03:07:27.824Z,100480.34
2019-04-25T03:09:58.094Z,100467.09
2019-04-25T03:12:33.229Z,100472.47
2019-04-25T03:14:58.874Z,100478.81
2019-04-25T03:17:29.229Z,100481.31
2019-04-25T03:20:15.891Z,100474.40
2019-04-25T03:22:45.010Z,100460.66
2019-04-25T03:25:17.343Z,100465.38
2019-04-25T03:27:45.393Z,100463.80
2019-04-25T03:30:17.638Z,100473.80
2019-04-25T03:32:45.535Z,100474.37
2019-04-25T03:35:16.758Z,100481.48
2019-04-25T03:37:47.631Z,100485.86
2019-04-25T03:40:17.004Z,100493.16
2019-04-25T03:42:47.764Z,100489.47
2019-04-25T03:45:18.240Z,100486.00
2019-04-25T03:47:47.663Z,100495.03
2019-04-25T03:50:17.027Z,100491.47
2019-04-25T03:52:46.728Z,100478.90
2019-04-25T03:55:17.501Z,100484.66
2019-04-25T03:57:46.609Z,100485.43
2019-04-25T04:00:15.962Z,100478.66
2019-04-25T04:02:45.081Z,100481.24
2019-04-25T04:05:14.971Z,100480.77
2019-04-25T04:07:43.745Z,100485.66
2019-04-25T04:10:15.138Z,100488.35
2019-04-25T04:12:44.318Z,100489.69
2019-04-25T04:15:14.968Z,100514.47
2019-04-25T04:17:46.066Z,100529.98
2019-04-25T04:20:16.891Z,100534.77
2019-04-25T04:22:50.237Z,100544.17
2019-04-25T04:25:21.217Z,100543.61
2019-04-25T04:27:50.395Z,100538.61
2019-04-25T04:30:19.584Z,100543.23
2019-04-25T04:32:48.747Z,100545.67
2019-04-25T04:35:17.903Z,100541.36
2019-04-25T04:37:48.666Z,100544.73
2019-04-25T04:40:18.637Z,100538.48
2019-04-25T04:42:53.309Z,100528.89
2019-04-25T04:45:21.094Z,100526.30
2019-04-25T04:47:50.211Z,100524.47
2019-04-25T04:50:19.401Z,100530.23
2019-04-25T04:52:48.561Z,100527.93
2019-04-25T04:55:18.858Z,100529.66
2019-04-25T04:57:48.572Z,100521.59
2019-04-25T05:00:20.945Z,100512.95
2019-04-25T05:02:57.578Z,100500.69
2019-04-25T05:05:47.938Z,100500.50
2019-04-25T05:08:29.996Z,100512.41
2019-04-25T05:10:59.255Z,100498.20
2019-04-25T05:13:28.375Z,100510.41
2019-04-25T05:15:59.402Z,100514.95
2019-04-25T05:18:37.398Z,100516.01
2019-04-25T05:21:02.233Z,100523.69
2019-04-25T05:23:31.410Z,100524.36
2019-04-25T05:26:00.556Z,100542.84
2019-04-25T05:28:29.753Z,100539.38
2019-04-25T05:31:09.271Z,100544.77
2019-04-25T05:33:38.510Z,100550.33
2019-04-25T05:36:08.026Z,100546.55
2019-04-25T05:38:37.158Z,100542.22
2019-04-25T05:41:16.922Z,100544.41
2019-04-25T05:43:45.331Z,100539.05
2019-04-25T05:46:15.351Z,100529.23
2019-04-25T05:48:44.700Z,100535.26
2019-04-25T05:51:13.855Z,100531.70
2019-04-25T05:53:43.381Z,100543.05
2019-04-25T05:56:13.895Z,100546.20
2019-04-25T05:58:43.931Z,100543.30
2019-04-25T06:01:13.405Z,100543.41
2019-04-25T06:03:43.936Z,100541.20
2019-04-25T06:06:13.485Z,100550.50
2019-04-25T06:08:44.245Z,100559.91
2019-04-25T06:11:25.074Z,100567.61
2019-04-25T06:14:00.288Z,100562.77
2019-04-25T06:16:31.215Z,100565.27
2019-04-25T06:19:14.010Z,100568.92
2019-04-25T06:21:43.391Z,100568.72
2019-04-25T06:24:16.930Z,100561.77
2019-04-25T06:26:47.835Z,100565.54
2019-04-25T06:29:17.014Z,100556.17
2019-04-25T06:31:46.203Z,100563.84
2019-04-25T06:34:15.352Z,100565.25
2019-04-25T06:36:44.538Z,100576.73
2019-04-25T06:39:14.270Z,100572.27
2019-04-25T06:41:44.189Z,100572.22
2019-04-25T06:44:14.367Z,100570.85
2019-04-25T06:46:47.865Z,100569.29
2019-04-25T06:49:18.635Z,100565.78
2019-04-25T06:51:57.368Z,100578.50
2019-04-25T06:54:27.850Z,100589.06
2019-04-25T06:56:57.174Z,100605.16
2019-04-25T06:59:27.930Z,100605.41
2019-04-25T07:01:57.412Z,100600.70
2019-04-25T07:04:27.719Z,100604.77
2019-04-25T07:07:09.405Z,100596.98
2019-04-25T07:09:29.607Z,100595.41
2019-04-25T07:11:59.133Z,100597.43
2019-04-25T07:14:28.335Z,100605.20
2019-04-25T07:16:57.445Z,100600.06
2019-04-25T07:19:27.103Z,100603.14
2019-04-25T07:21:57.507Z,100594.05
2019-04-25T07:24:27.277Z,100599.47
2019-04-25T07:27:01.176Z,100591.98
2019-04-25T07:29:33.428Z,100606.11
2019-04-25T07:32:05.957Z,100610.01
2019-04-25T07:34:35.218Z,100615.81
2019-04-25T07:37:04.349Z,100613.36
2019-04-25T07:39:34.393Z,100618.53
2019-04-25T07:42:04.635Z,100609.73
2019-04-25T07:44:47.832Z,100598.19
2019-04-25T07:47:04.974Z,100602.67
2019-04-25T07:49:34.810Z,100597.52
2019-04-25T07:52:04.360Z,100597.69
2019-04-25T07:54:34.388Z,100586.91
2019-04-25T07:57:04.972Z,100579.39
2019-04-25T07:59:35.016Z,100588.00
2019-04-25T08:02:04.394Z,100604.39
2019-04-25T08:04:35.740Z,100612.78
2019-04-25T08:07:04.604Z,100621.02
2019-04-25T08:09:35.200Z,100629.78
2019-04-25T08:12:05.068Z,100622.14
2019-04-25T08:14:35.180Z,100629.91
2019-04-25T08:17:12.016Z,100635.35
2019-04-25T08:19:44.220Z,100649.91
2019-04-25T08:22:13.932Z,100665.20
2019-04-25T08:24:44.002Z,100671.59
2019-04-25T08:27:13.424Z,100659.14
2019-04-25T08:29:44.859Z,100643.98
2019-04-25T08:32:14.256Z,100647.06
2019-04-25T08:34:44.757Z,100645.11
2019-04-25T08:37:19.087Z,100654.61
2019-04-25T08:39:45.265Z,100650.88
2019-04-25T08:42:14.817Z,100650.14
2019-04-25T08:44:44.836Z,100657.66
2019-04-25T08:47:14.604Z,100659.02
2019-04-25T08:49:49.476Z,100675.68
2019-04-25T08:52:18.775Z,100688.98
2019-04-25T08:54:54.294Z,100684.06
2019-04-25T08:57:27.864Z,100688.00
2019-04-25T09:00:01.838Z,100683.06
2019-04-25T09:02:38.813Z,100669.89
2019-04-25T09:05:27.415Z,100672.72
2019-04-25T09:07:56.519Z,100673.83
2019-04-25T09:10:25.699Z,100681.12
2019-04-25T09:12:54.834Z,100686.50
2019-04-25T09:15:24.289Z,100689.00
2019-04-25T09:17:54.753Z,100694.70
2019-04-25T09:20:24.068Z,100699.53
2019-04-25T09:22:54.252Z,100701.14
2019-04-25T09:25:24.171Z,100705.63
2019-04-25T09:27:54.174Z,100702.66
2019-04-25T09:30:24.068Z,100695.00
2019-04-25T09:32:53.800Z,100691.91
2019-04-25T09:35:23.634Z,100696.62
2019-04-25T09:37:53.578Z,100707.50
2019-04-25T09:40:24.079Z,100705.91
2019-04-25T09:42:53.787Z,100703.98
2019-04-25T09:45:26.449Z,100689.84
2019-04-25T09:47:58.226Z,100699.54
2019-04-25T09:50:29.160Z,100700.69
2019-04-25T09:52:59.680Z,100704.42
2019-04-25T09:55:30.517Z,100702.91
2019-04-25T09:58:01.387Z,100692.81
2019-04-25T10:00:33.384Z,100686.33
2019-04-25T10:03:04.512Z,100677.55
2019-04-25T10:05:36.846Z,100676.03
2019-04-25T10:08:06.248Z,100671.31
2019-04-25T10:10:35.500Z,100672.95
2019-04-25T10:13:06.611Z,100670.66
2019-04-25T10:15:48.946Z,100682.49
2019-04-25T10:18:18.073Z,100677.97
2019-04-25T10:20:47.610Z,100684.61
2019-04-25T10:23:16.948Z,100682.05
2019-04-25T10:25:46.573Z,100686.50
2019-04-25T10:28:15.678Z,100685.70
2019-04-25T10:30:45.146Z,100681.98
2019-04-25T10:33:16.011Z,100683.60
2019-04-25T10:35:52.046Z,100683.45
2019-04-25T10:38:16.110Z,100683.95
2019-04-25T10:40:47.151Z,100680.72
2019-04-25T10:43:16.643Z,100681.08
2019-04-25T10:45:47.260Z,100688.94
2019-04-25T10:48:16.466Z,100689.22
2019-04-25T10:50:47.069Z,100683.70
2019-04-25T10:53:17.130Z,100672.48
2019-04-25T10:55:47.574Z,100675.63
2019-04-25T10:58:17.029Z,100670.57
2019-04-25T11:00:48.677Z,100670.51
2019-04-25T11:03:19.993Z,100655.95
2019-04-25T11:05:49.840Z,100656.77
2019-04-25T11:08:19.030Z,100657.56
2019-04-25T11:10:49.872Z,100662.11
2019-04-25T11:13:19.268Z,100658.19
2019-04-25T11:15:48.483Z,100652.11
2019-04-25T11:18:18.038Z,100645.02
2019-04-25T11:20:46.472Z,100640.19
2019-04-25T11:23:15.570Z,100629.50
2019-04-25T11:25:45.295Z,100635.73
2019-04-25T11:28:15.264Z,100642.64
2019-04-25T11:30:46.743Z,100629.75
2019-04-25T11:33:16.469Z,100622.36
2019-04-25T11:35:46.822Z,100632.87
2019-04-25T11:38:20.607Z,100629.75
2019-04-25T11:40:57.221Z,100621.34
2019-04-25T11:43:26.375Z,100621.41
2019-04-25T11:45:56.003Z,100621.56
2019-04-25T11:48:26.412Z,100617.66
2019-04-25T11:50:55.913Z,100601.06
2019-04-25T11:53:25.033Z,100596.99
2019-04-25T11:55:54.723Z,100605.42
2019-04-25T11:58:23.990Z,100609.06
2019-04-25T12:00:54.122Z,100606.61
2019-04-25T12:03:24.649Z,100607.39
2019-04-25T12:05:53.804Z,100618.98
2019-04-25T12:08:24.289Z,100609.91
2019-04-25T12:10:54.817Z,100606.94
2019-04-25T12:13:24.317Z,100605.67
2019-04-25T12:15:54.543Z,100606.75
2019-04-25T12:18:23.664Z,100606.52
2019-04-25T12:20:54.843Z,100589.14
2019-04-25T12:23:23.681Z,100581.00
2019-04-25T12:25:54.357Z,100577.24
2019-04-25T12:28:23.878Z,100571.09
2019-04-25T12:30:54.991Z,100575.03
2019-04-25T12:33:24.075Z,100572.16
2019-04-25T12:35:54.147Z,100576.80
2019-04-25T12:38:24.594Z,100579.42
2019-04-25T12:40:54.402Z,100575.34
2019-04-25T12:43:26.056Z,100588.69
2019-04-25T12:45:56.851Z,100593.84
2019-04-25T12:48:26.139Z,100596.45
2019-04-25T12:51:14.671Z,100606.41
2019-04-25T12:53:43.904Z,100619.25
2019-04-25T12:56:13.122Z,100612.55
2019-04-25T12:58:43.486Z,100607.70
2019-04-25T13:01:12.769Z,100612.22
2019-04-25T13:03:41.974Z,100611.34
2019-04-25T13:06:11.075Z,100613.08
2019-04-25T13:08:40.215Z,100607.04
2019-04-25T13:11:10.534Z,100605.80
2019-04-25T13:13:39.733Z,100620.26
2019-04-25T13:16:09.332Z,100618.58
2019-04-25T13:18:38.455Z,100621.08
2019-04-25T13:21:07.792Z,100611.16
2019-04-25T13:23:36.903Z,100611.55
2019-04-25T13:26:07.142Z,100598.69
2019-04-25T13:28:46.902Z,100586.70
2019-04-25T13:31:20.409Z,100588.07
2019-04-25T13:33:57.354Z,100601.44
2019-04-25T13:36:26.995Z,100590.75
2019-04-25T13:39:16.387Z,100595.91
2019-04-25T13:41:45.467Z,100595.05
2019-04-25T13:44:14.824Z,100576.08
2019-04-25T13:46:43.968Z,100582.20
2019-04-25T13:49:14.102Z,100580.30
2019-04-25T13:51:43.281Z,100582.95
2019-04-25T13:54:13.053Z,100594.23
2019-04-25T13:56:43.724Z,100592.53
2019-04-25T13:59:14.488Z,100588.06
2019-04-25T14:01:44.218Z,100580.88
2019-04-25T14:04:14.214Z,100589.04
2019-04-25T14:06:43.487Z,100583.30
2019-04-25T14:09:14.341Z,100586.77
2019-04-25T14:11:44.130Z,100576.16
2019-04-25T14:14:13.533Z,100580.58
2019-04-25T14:16:56.539Z,100572.70
2019-04-25T14:22:40.493Z,100558.36
2019-04-25T14:25:09.969Z,100559.83
2019-04-25T14:27:39.106Z,100562.67
2019-04-25T14:30:10.268Z,100549.54
2019-04-25T14:32:39.400Z,100556.41
2019-04-25T14:35:08.652Z,100545.55
2019-04-25T14:37:39.701Z,100541.91
2019-04-25T14:40:15.966Z,100543.13
2019-04-25T14:42:45.096Z,100548.38
2019-04-25T14:45:14.485Z,100542.39
2019-04-25T14:47:43.600Z,100547.53
2019-04-25T14:50:12.720Z,100552.62
2019-04-25T14:52:41.900Z,100559.05
2019-04-25T14:55:12.931Z,100561.27
2019-04-25T14:57:42.071Z,100558.38
2019-04-25T15:00:28.273Z,100557.06
2019-04-25T15:02:59.305Z,100557.97
2019-04-25T15:05:28.428Z,100565.06
2019-04-25T15:07:57.563Z,100562.05
2019-04-25T15:10:27.062Z,100559.31
2019-04-25T15:12:55.450Z,100567.48
2019-04-25T15:15:24.643Z,100566.09
2019-04-25T15:17:53.794Z,100576.29
2019-04-25T15:20:23.757Z,100581.02
2019-04-25T15:22:53.828Z,100585.75
2019-04-25T15:25:22.979Z,100582.64
2019-04-25T15:27:52.102Z,100587.73
2019-04-25T15:30:29.249Z,100590.70
2019-04-25T15:32:56.982Z,100600.38
2019-04-25T15:35:30.432Z,100603.11
2019-04-25T15:38:01.212Z,100618.16
2019-04-25T15:40:34.789Z,100621.13
2019-04-25T15:43:08.239Z,100631.92
2019-04-25T15:45:39.026Z,100645.48
2019-04-25T15:48:08.197Z,100648.05
2019-04-25T15:50:37.386Z,100652.28
2019-04-25T15:53:06.525Z,100649.83
2019-04-25T15:55:35.723Z,100655.23
2019-04-25T15:58:04.868Z,100654.32
2019-04-25T16:00:40.858Z,100660.09
2019-04-25T16:03:10.049Z,100671.88
2019-04-25T16:05:39.190Z,100672.69
2019-04-25T16:08:08.331Z,100664.09
2019-04-25T16:10:37.516Z,100675.45
2019-04-25T16:13:06.911Z,100677.48
2019-04-25T16:15:36.171Z,100675.97
2019-04-25T16:18:07.004Z,100685.36
2019-04-25T16:20:36.120Z,100680.14
2019-04-25T16:23:05.304Z,100677.64
2019-04-25T16:25:35.413Z,100681.22
2019-04-25T16:28:04.743Z,100683.53
2019-04-25T16:30:34.558Z,100689.56
2019-04-25T16:33:04.104Z,100689.56
2019-04-25T16:35:33.403Z,100692.91
2019-04-25T16:38:03.204Z,100702.38
2019-04-25T16:40:32.321Z,100705.03
2019-04-25T16:43:03.085Z,100695.00
2019-04-25T16:45:33.252Z,100698.98
2019-04-25T16:48:02.405Z,100699.62
2019-04-25T16:50:31.699Z,100698.19
2019-04-25T16:53:03.562Z,100698.48
2019-04-25T16:55:32.698Z,100701.13
2019-04-25T16:58:01.814Z,100696.74
2019-04-25T17:00:50.759Z,100695.45
2019-04-25T17:03:21.627Z,100690.00
2019-04-25T17:05:50.799Z,100685.23
2019-04-25T17:08:19.993Z,100679.48
2019-04-25T17:10:50.749Z,100693.73
2019-04-25T17:13:20.134Z,100703.41
2019-04-25T17:15:51.211Z,100702.79
2019-04-25T17:18:24.659Z,100694.52
2019-04-25T17:21:07.363Z,100692.30
2019-04-25T17:23:37.018Z,100695.63
2019-04-25T17:26:06.667Z,100689.73
2019-04-25T17:28:37.012Z,100688.02
2019-04-25T17:31:10.481Z,100692.52
2019-04-25T17:33:43.969Z,100688.94
2019-04-25T17:36:14.782Z,100693.30
2019-04-25T17:38:45.621Z,100701.83
2019-04-25T17:41:14.766Z,100705.63
2019-04-25T17:43:43.940Z,100705.98
2019-04-25T17:46:14.683Z,100699.83
2019-04-25T17:48:43.806Z,100711.34
2019-04-25T17:51:12.950Z,100713.20
2019-04-25T17:53:42.081Z,100720.52
2019-04-25T17:56:11.291Z,100718.79
2019-04-25T17:58:41.245Z,100729.20
2019-04-25T18:01:12.952Z,100730.97
2019-04-25T18:03:42.086Z,100737.91
2019-04-25T18:06:11.206Z,100738.19
2019-04-25T18:08:40.320Z,100741.17
2019-04-25T18:11:09.620Z,100745.17
2019-04-25T18:13:40.102Z,100743.69
2019-04-25T18:16:11.807Z,100746.31
2019-04-25T18:19:00.474Z,100745.23
2019-04-25T18:21:29.602Z,100744.36
2019-04-25T18:24:06.175Z,100734.88
2019-04-25T18:26:37.006Z,100737.24
2019-04-25T18:29:10.761Z,100738.87
2019-04-25T18:31:39.963Z,100735.29
2019-04-25T18:34:10.731Z,100734.56
2019-04-25T18:36:44.895Z,100736.98
2019-04-25T18:39:18.565Z,100728.09
2019-04-25T18:41:49.418Z,100734.67
2019-04-25T18:44:18.552Z,100733.08
2019-04-25T18:46:48.596Z,100738.78
2019-04-25T18:49:17.791Z,100745.95
2019-04-25T18:51:56.679Z,100748.67
2019-04-25T18:54:22.923Z,100753.25
2019-04-25T18:56:56.353Z,100757.62
2019-04-25T18:59:42.551Z,100758.98
2019-04-25T19:02:15.331Z,100763.92
2019-04-25T19:04:47.012Z,100762.56
2019-04-25T19:07:22.526Z,100764.92
2019-04-25T19:09:47.716Z,100771.72
2019-04-25T19:12:23.316Z,100780.24
2019-04-25T19:14:53.222Z,100789.76
2019-04-25T19:17:24.606Z,100797.91
2019-04-25T19:20:07.976Z,100807.56
2019-04-25T19:22:48.323Z,100811.17
2019-04-25T19:25:21.147Z,100804.40
2019-04-25T19:27:52.753Z,100805.66
2019-04-25T19:30:29.853Z,100803.16
2019-04-25T19:33:00.683Z,100815.28
2019-04-25T19:35:39.516Z,100819.14
2019-04-25T19:38:11.212Z,100818.53
2019-04-25T19:40:55.373Z,100833.48
2019-04-25T19:43:40.257Z,100832.02
2019-04-25T19:46:14.808Z,100832.27
2019-04-25T19:48:44.933Z,100829.31
2019-04-25T19:51:16.577Z,100824.50
2019-04-25T19:53:47.125Z,100839.18
2019-04-25T19:56:23.667Z,100827.34
2019-04-25T19:58:54.000Z,100849.75
2019-04-25T20:01:28.025Z,100860.01
2019-04-25T20:04:12.156Z,100851.83
2019-04-25T20:06:57.155Z,100870.46
2019-04-25T20:09:37.602Z,100862.81
2019-04-25T20:12:10.478Z,100887.11
2019-04-25T20:14:44.547Z,100890.89
2019-04-25T20:17:24.908Z,100914.06
2019-04-25T20:19:54.342Z,100916.89
2019-04-25T20:22:25.264Z,100920.15
2019-04-25T20:24:54.621Z,100912.19
2019-04-25T20:27:29.474Z,100932.84
2019-04-25T20:29:58.677Z,100928.84
2019-04-25T20:32:28.057Z,100925.61
2019-04-25T20:34:57.239Z,100924.72
2019-04-25T20:37:26.619Z,100924.92
2019-04-25T20:39:56.126Z,100920.71
2019-04-25T20:42:25.160Z,100933.22
2019-04-25T20:44:54.650Z,100949.08
2019-04-25T20:47:23.767Z,100938.58
2019-04-25T20:49:53.105Z,100929.06
2019-04-25T20:52:22.607Z,100942.02
2019-04-25T20:54:52.847Z,100963.65
2019-04-25T20:57:22.656Z,100962.52
2019-04-25T20:59:52.100Z,100950.22
2019-04-25T21:02:21.586Z,100943.70
2019-04-25T21:04:50.855Z,100937.69
2019-04-25T21:07:20.371Z,100912.48
2019-04-25T21:09:50.011Z,100898.10
2019-04-25T21:12:19.737Z,100891.88
2019-04-25T21:14:59.840Z,100887.84
2019-04-25T21:17:36.517Z,100887.96
2019-04-25T21:20:11.315Z,100881.94
2019-04-25T21:22:40.704Z,100888.71
2019-04-25T21:25:09.929Z,100878.16
2019-04-25T21:27:39.131Z,100891.79
2019-04-25T21:30:09.974Z,100909.14
2019-04-25T21:32:50.540Z,100919.93
2019-04-25T21:35:20.728Z,100930.01
2019-04-25T21:37:51.126Z,100932.23
2019-04-25T21:40:29.679Z,100926.29
2019-04-25T21:43:03.655Z,100918.09
2019-04-25T21:45:33.718Z,100920.35
2019-04-25T21:48:03.532Z,100913.95
2019-04-25T21:50:33.446Z,100914.37
2019-04-25T21:53:03.234Z,100895.41
2019-04-25T21:55:33.571Z,100885.09
2019-04-25T21:58:03.109Z,100895.93
2019-04-25T22:00:46.897Z,100887.66
2019-04-25T22:03:19.128Z,100874.53
2019-04-25T22:05:48.496Z,100875.37
2019-04-25T22:08:17.708Z,100880.11
2019-04-25T22:10:47.097Z,100876.09
2019-04-25T22:13:18.719Z,100884.43
2019-04-25T22:15:49.256Z,100880.59
2019-04-25T22:18:21.136Z,100886.39
2019-04-25T22:20:51.421Z,100878.41
2019-04-25T22:23:21.805Z,100876.05
2019-04-25T22:25:51.803Z,100891.09
2019-04-25T22:28:21.250Z,100881.27
2019-04-25T22:30:52.652Z,100877.36
2019-04-25T22:33:26.178Z,100877.25
2019-04-25T22:35:57.656Z,100890.14
2019-04-25T22:38:27.422Z,100883.83
2019-04-25T22:40:56.600Z,100895.19
2019-04-25T22:43:26.170Z,100916.54
2019-04-25T22:45:55.760Z,100913.30
2019-04-25T22:48:26.775Z,100893.33
2019-04-25T22:50:56.270Z,100905.14
2019-04-25T22:53:27.067Z,100904.08
2019-04-25T22:55:56.552Z,100896.78
2019-04-25T22:58:25.766Z,100884.82
2019-04-25T23:00:55.185Z,100876.48
2019-04-25T23:03:26.096Z,100869.12
2019-04-25T23:05:57.008Z,100868.30
2019-04-25T23:08:26.552Z,100864.05
2019-04-25T23:10:55.873Z,100875.06
2019-04-25T23:13:25.601Z,100872.05
2019-04-25T23:15:54.249Z,100871.13
2019-04-25T23:18:23.949Z,100862.75
2019-04-25T23:20:53.296Z,100871.73
2019-04-25T23:23:23.006Z,100862.38
2019-04-25T23:25:56.706Z,100851.25
2019-04-25T23:28:28.207Z,100848.92
2019-04-25T23:30:59.061Z,100852.45
2019-04-25T23:33:28.471Z,100852.88
2019-04-25T23:35:57.331Z,100851.83
2019-04-25T23:38:26.485Z,100887.13
2019-04-25T23:40:55.756Z,100924.87
2019-04-25T23:43:25.605Z,100920.06
2019-04-25T23:46:16.292Z,100909.95
2019-04-25T23:48:46.113Z,100919.30
2019-04-25T23:51:15.432Z,100915.03
2019-04-25T23:53:44.820Z,100917.56
2019-04-25T23:56:15.203Z,100934.92
2019-04-25T23:58:45.032Z,100953.27
